createdAt,value
2023-04-26T00:00:12.059Z,0.52
2023-04-26T00:05:14.651Z,0.50
2023-04-26T00:10:16.460Z,1.20
2023-04-26T00:15:18.167Z,0.65
2023-04-26T00:20:19.861Z,0.65
2023-04-26T00:25:21.542Z,0.90
2023-04-26T00:30:23.176Z,0.80
2023-04-26T00:35:24.966Z,0.95
2023-04-26T00:40:26.930Z,0.65
2023-04-26T00:45:28.592Z,1.02
2023-04-26T00:50:31.532Z,0.60
2023-04-26T00:55:33.290Z,0.80
2023-04-26T01:00:34.975Z,0.75
2023-04-26T01:05:37.659Z,0.90
2023-04-26T01:10:40.398Z,0.80
2023-04-26T01:15:48.701Z,0.90
2023-04-26T01:20:52.156Z,0.88
2023-04-26T01:25:56.260Z,0.70
2023-04-26T01:30:57.858Z,0.70
2023-04-26T01:35:59.494Z,0.80
2023-04-26T01:41:01.062Z,0.70
2023-04-26T01:46:02.700Z,0.75
2023-04-26T01:51:04.702Z,0.70
2023-04-26T01:56:06.751Z,0.70
2023-04-26T02:01:09.458Z,0.80
2023-04-26T02:06:11.119Z,0.60
2023-04-26T02:11:12.809Z,0.70
2023-04-26T02:16:16.632Z,0.73
2023-04-26T02:21:18.712Z,0.90
2023-04-26T02:26:20.326Z,0.90
2023-04-26T02:31:23.316Z,0.98
2023-04-26T02:36:25.171Z,0.90
2023-04-26T02:41:26.818Z,0.77
2023-04-26T02:46:28.531Z,0.57
2023-04-26T02:51:30.134Z,0.80
2023-04-26T02:56:31.817Z,1.00
2023-04-26T03:01:33.438Z,1.00
2023-04-26T03:06:35.851Z,1.08
2023-04-26T03:11:37.446Z,1.10
2023-04-26T03:16:43.599Z,0.90
2023-04-26T03:21:45.212Z,1.08
2023-04-26T03:26:46.877Z,1.40
2023-04-26T03:31:48.577Z,0.93
2023-04-26T03:36:50.151Z,1.00
2023-04-26T03:41:52.349Z,1.10
2023-04-26T03:46:53.987Z,0.88
2023-04-26T03:51:55.566Z,1.00
2023-04-26T03:56:57.147Z,0.85
2023-04-26T04:01:58.802Z,0.80
2023-04-26T04:07:00.909Z,1.08
2023-04-26T04:12:03.112Z,0.80
2023-04-26T04:17:04.770Z,1.00
2023-04-26T04:22:07.098Z,0.95
2023-04-26T04:27:09.018Z,1.02
2023-04-26T04:32:11.530Z,1.23
2023-04-26T04:37:14.503Z,1.00
2023-04-26T04:42:16.126Z,0.90
2023-04-26T04:47:17.925Z,0.88
2023-04-26T04:52:21.910Z,0.65
2023-04-26T04:57:23.533Z,0.75
2023-04-26T05:02:25.853Z,0.85
2023-04-26T05:07:29.114Z,1.00
2023-04-26T05:12:30.911Z,0.85
2023-04-26T05:17:33.503Z,1.20
2023-04-26T05:22:36.894Z,1.10
2023-04-26T05:27:38.588Z,1.20
2023-04-26T05:32:41.683Z,1.60
2023-04-26T05:37:43.290Z,2.17
2023-04-26T05:42:44.863Z,1.60
2023-04-26T05:47:47.765Z,2.38
2023-04-26T05:52:49.714Z,2.20
2023-04-26T05:57:51.487Z,2.83
2023-04-26T06:02:53.272Z,3.22
2023-04-26T06:08:01.734Z,3.28
2023-04-26T06:13:04.375Z,2.88
2023-04-26T06:18:06.869Z,2.38
2023-04-26T06:23:08.561Z,2.70
2023-04-26T06:28:10.607Z,2.75
2023-04-26T06:33:12.234Z,2.05
2023-04-26T06:38:13.908Z,2.08
2023-04-26T06:43:15.539Z,2.25
2023-04-26T06:48:17.176Z,1.83
2023-04-26T06:53:22.898Z,1.70
2023-04-26T06:58:24.826Z,4.85
2023-04-26T07:03:27.166Z,2.50
2023-04-26T07:08:28.906Z,2.28
2023-04-26T07:13:31.719Z,1.80
2023-04-26T07:18:33.360Z,1.58
2023-04-26T07:23:35.504Z,1.90
2023-04-26T07:28:37.944Z,1.90
2023-04-26T07:33:39.625Z,1.60
2023-04-26T07:38:41.470Z,1.88
2023-04-26T07:43:43.359Z,1.52
2023-04-26T07:48:44.961Z,1.50
2023-04-26T07:53:49.615Z,1.20
2023-04-26T07:58:51.794Z,1.48
2023-04-26T08:03:53.781Z,0.93
2023-04-26T08:08:55.639Z,1.35
2023-04-26T08:13:57.280Z,1.23
2023-04-26T08:19:02.930Z,1.30
2023-04-26T08:24:04.913Z,1.47
2023-04-26T08:29:06.656Z,1.38
2023-04-26T08:34:13.500Z,1.30
2023-04-26T08:39:15.078Z,1.40
2023-04-26T08:44:18.324Z,1.50
2023-04-26T08:49:32.332Z,1.38
2023-04-26T08:54:35.973Z,1.33
2023-04-26T08:59:38.434Z,1.15
2023-04-26T09:04:41.445Z,1.08
2023-04-26T09:09:47.685Z,1.10
2023-04-26T09:14:49.545Z,1.23
2023-04-26T09:19:51.259Z,1.40
2023-04-26T09:24:52.898Z,1.48
2023-04-26T09:30:05.708Z,1.58
2023-04-26T09:35:09.189Z,1.20
2023-04-26T09:40:19.762Z,1.30
2023-04-26T09:45:21.378Z,1.10
2023-04-26T09:50:30.520Z,0.90
2023-04-26T09:55:35.420Z,0.90
2023-04-26T10:00:39.413Z,1.42
2023-04-26T10:05:41.192Z,1.00
2023-04-26T10:10:44.010Z,0.80
2023-04-26T10:15:47.544Z,1.00
2023-04-26T10:20:53.834Z,1.10
2023-04-26T10:25:56.494Z,1.05
2023-04-26T10:30:59.952Z,0.82
2023-04-26T10:36:10.230Z,0.60
2023-04-26T10:41:37.141Z,0.55
2023-04-26T10:46:40.798Z,0.82
2023-04-26T10:52:08.897Z,0.60
2023-04-26T10:57:10.925Z,0.60
2023-04-26T11:02:13.645Z,0.60
2023-04-26T11:07:16.271Z,0.80
2023-04-26T11:12:18.015Z,0.73
2023-04-26T11:17:20.883Z,1.00
2023-04-26T11:22:23.682Z,0.40
2023-04-26T11:27:27.930Z,0.50
2023-04-26T11:32:29.572Z,0.90
2023-04-26T11:37:31.250Z,1.30
2023-04-26T11:42:32.871Z,1.00
2023-04-26T11:47:35.909Z,1.20
2023-04-26T11:52:38.784Z,4.22
2023-04-26T11:57:40.613Z,1.25
2023-04-26T12:02:48.743Z,1.98
2023-04-26T12:07:55.720Z,1.00
2023-04-26T12:12:59.800Z,0.90
2023-04-26T12:18:10.397Z,1.00
2023-04-26T12:23:15.430Z,1.15
2023-04-26T12:28:17.151Z,1.15
2023-04-26T12:33:22.910Z,0.93
2023-04-26T12:38:24.827Z,1.05
2023-04-26T12:43:26.739Z,1.17
2023-04-26T12:48:29.877Z,0.93
2023-04-26T12:53:34.876Z,1.00
2023-04-26T12:58:36.795Z,0.73
2023-04-26T13:03:42.227Z,1.35
2023-04-26T13:08:43.958Z,1.33
2023-04-26T13:13:45.684Z,1.25
2023-04-26T13:18:47.345Z,1.17
2023-04-26T13:23:49.015Z,1.23
2023-04-26T13:28:51.502Z,1.63
2023-04-26T13:33:53.204Z,0.80
2023-04-26T13:38:54.901Z,0.75
2023-04-26T13:43:57.135Z,1.42
2023-04-26T13:48:58.839Z,1.13
2023-04-26T13:54:00.701Z,1.20
2023-04-26T13:59:03.668Z,1.30
2023-04-26T14:04:05.778Z,1.20
2023-04-26T14:09:08.890Z,1.33
2023-04-26T14:14:11.331Z,1.27
2023-04-26T14:19:15.427Z,1.27
2023-04-26T14:24:17.062Z,1.45
2023-04-26T14:29:18.693Z,1.10
2023-04-26T14:34:22.128Z,1.10
2023-04-26T14:39:24.816Z,1.15
2023-04-26T14:44:27.275Z,0.85
2023-04-26T14:49:28.954Z,1.00
2023-04-26T14:54:30.566Z,0.95
2023-04-26T14:59:32.221Z,0.98
2023-04-26T15:04:34.005Z,1.02
2023-04-26T15:09:36.254Z,1.00
2023-04-26T15:14:37.836Z,1.30
2023-04-26T15:19:39.418Z,1.17
2023-04-26T15:24:41.272Z,0.88
2023-04-26T15:29:42.953Z,0.80
2023-04-26T15:34:45.200Z,1.08
2023-04-26T15:39:47.498Z,0.80
2023-04-26T15:44:50.055Z,0.90
2023-04-26T15:49:51.796Z,1.05
2023-04-26T15:54:53.412Z,0.80
2023-04-26T15:59:55.058Z,0.75
2023-04-26T16:04:56.851Z,0.93
2023-04-26T16:09:58.721Z,0.63
2023-04-26T16:15:00.392Z,0.57
2023-04-26T16:20:02.638Z,1.58
2023-04-26T16:25:06.896Z,1.23
2023-04-26T16:30:09.827Z,1.25
2023-04-26T16:35:11.614Z,0.90
2023-04-26T16:40:13.676Z,1.05
2023-04-26T16:45:16.498Z,0.88
2023-04-26T16:50:18.312Z,1.00
2023-04-26T16:55:19.914Z,1.00
2023-04-26T17:00:21.578Z,0.80
2023-04-26T17:05:23.152Z,1.40
2023-04-26T17:10:26.826Z,1.50
2023-04-26T17:15:28.993Z,1.33
2023-04-26T17:20:32.369Z,1.10
2023-04-26T17:25:35.318Z,1.20
2023-04-26T17:30:37.855Z,1.00
2023-04-26T17:35:43.037Z,0.90
2023-04-26T17:40:44.734Z,1.40
2023-04-26T17:45:46.593Z,1.40
2023-04-26T17:50:48.257Z,2.00
2023-04-26T17:55:51.945Z,2.20
2023-04-26T18:00:53.979Z,2.00
2023-04-26T18:05:55.799Z,1.45
2023-04-26T18:10:59.766Z,1.50
2023-04-26T18:16:03.410Z,1.30
2023-04-26T18:21:06.245Z,1.13
2023-04-26T18:26:08.644Z,1.33
2023-04-26T18:31:12.186Z,1.90
2023-04-26T18:36:14.992Z,2.40
2023-04-26T18:41:17.964Z,2.63
2023-04-26T18:46:21.033Z,2.58
2023-04-26T18:51:23.602Z,2.67
2023-04-26T18:56:27.607Z,2.63
2023-04-26T19:01:30.714Z,2.95
2023-04-26T19:06:33.623Z,3.08
2023-04-26T19:11:35.747Z,3.45
2023-04-26T19:16:39.924Z,3.03
2023-04-26T19:21:43.013Z,2.70
2023-04-26T19:26:45.980Z,2.40
2023-04-26T19:31:48.103Z,2.10
2023-04-26T19:36:50.269Z,2.10
2023-04-26T19:41:52.433Z,2.33
2023-04-26T19:46:54.717Z,2.17
2023-04-26T19:51:58.763Z,2.17
2023-04-26T19:57:03.690Z,2.17
2023-04-26T20:02:07.221Z,2.17
2023-04-26T20:07:09.348Z,1.98
2023-04-26T20:12:12.203Z,1.90
2023-04-26T20:17:14.578Z,2.25
2023-04-26T20:22:16.972Z,2.28
2023-04-26T20:27:19.278Z,2.15
2023-04-26T20:32:21.435Z,2.35
2023-04-26T20:37:23.471Z,2.17
2023-04-26T20:42:25.394Z,2.50
2023-04-26T20:47:27.034Z,2.45
2023-04-26T20:52:28.781Z,2.20
2023-04-26T20:57:30.811Z,2.30
2023-04-26T21:02:32.768Z,2.35
2023-04-26T21:07:34.413Z,2.53
2023-04-26T21:12:36.264Z,3.40
2023-04-26T21:17:37.952Z,4.00
2023-04-26T21:22:39.589Z,3.47
2023-04-26T21:27:41.353Z,2.90
2023-04-26T21:32:43.061Z,3.45
2023-04-26T21:37:44.711Z,3.00
2023-04-26T21:42:57.757Z,2.80
2023-04-26T21:48:05.931Z,3.10
2023-04-26T21:53:07.658Z,2.78
2023-04-26T21:58:09.288Z,3.05
2023-04-26T22:03:11.170Z,3.00
2023-04-26T22:08:12.822Z,2.65
2023-04-26T22:13:14.463Z,2.22
2023-04-26T22:18:16.555Z,2.45
2023-04-26T22:23:18.150Z,2.22
2023-04-26T22:28:19.828Z,2.60
2023-04-26T22:33:21.596Z,2.47
2023-04-26T22:38:24.581Z,2.30
2023-04-26T22:43:26.177Z,2.50
2023-04-26T22:48:27.936Z,2.55
2023-04-26T22:53:29.994Z,2.30
2023-04-26T22:58:32.084Z,2.80
2023-04-26T23:03:36.876Z,2.15
2023-04-26T23:08:38.575Z,2.35
2023-04-26T23:13:40.139Z,2.58
2023-04-26T23:18:44.615Z,3.03
2023-04-26T23:23:46.186Z,3.03
2023-04-26T23:28:47.867Z,2.63
2023-04-26T23:33:49.460Z,2.70
2023-04-26T23:38:51.136Z,2.05
2023-04-26T23:43:52.716Z,2.90
2023-04-26T23:48:54.340Z,2.60
2023-04-26T23:53:55.965Z,2.72
2023-04-26T23:58:58.415Z,2.45
